Terminal Aerodrome Forecast
Issued by NWS Cleveland, OH

Home | Current Version | Previous Version | Text Only | Print | Product List | Glossary On
Versions: 1 2 3 4 5 6 7 8 9 10 11 12 13 14 15 16 17 18 19 20
000
FTUS41 KCLE 291939 AAA
TAFYNG
TAF AMD
KYNG 291939Z 2920/3018 33005KT 2SM BR OVC004
      TEMPO 2920/2922 4SM -SHRA OVC008
     FM292200 34008KT P6SM OVC015
     FM300000 36006KT P6SM BKN025
     FM300900 VRB03KT 5SM BR OVC006=

USA.gov is the U.S. government's official web portal to all federal, state and local government web resources and services.